Dixon, Iowa
Current Conditions -  °F | °C
As of 3:52 PM on Monday 22 Dec 2014 (Local Time) from KDVN Reporting Station
Haze Haze  
Wind Chill: 30°   Ceiling: 300
Heat Index: 37°   Visibility: 1.7mi
Dew Point: 35°   Wind: 10mph
Humidity: 93%   Direction: 120°ESE
Pressure: 29.58"   Gusts: NA
Location:  41.74°N, 90.78°W
Report Text: KDVN 222152Z AUTO 12009KT 1 3/4SM BR OVC003 03/02 A2958 RMK AO2 RAB05E19 SLP022 P0000 T00280017
Loading
Personal Weather Stations






























Interactive Weather Map New forecast layout! Learn more

10-Day Weather Forecast

Advertisements
Track Severe Weather on mobile